VV03 weather

Haiphong Kien An Airport
Hai Phong, Hai Duong Province, Vietnam

Public forecast

Using degrees Celsius for public forecast. Weather courtesy of forecast.io.

METAR (pilot weather report)

Closest report is Noi Bai International Airport, 51.3 nm (95.0 km) WNW. Retrieved 2019/04/20 03:30 UTC (20 minutes ago):

VVNB 200330Z 05004KT 350V120 6000 FEW016 31/25 Q1002 NOSIG

TAF (pilot weather forecast)

Forecast is more than 12 hours old.

Closest forecast is Cat Bi International Airport, 6.8 nm (12.6 km) E. Retrieved 2019/04/18 18:00 UTC (1 day ago):

TAF VVCI 181700Z 1818/1918 12006KT 8000 SCT017 BECMG 1822/1824 3200 BR BECMG 1902/1903 6000 NSW